createdAt,value
2019-04-28T17:24:16.420Z,101507.63
2019-04-28T17:26:48.214Z,101516.14
2019-04-28T17:29:19.308Z,101506.14
2019-04-28T17:31:50.454Z,101514.00
2019-04-28T17:34:21.478Z,101510.17
2019-04-28T17:36:53.925Z,101513.27
2019-04-28T17:39:26.113Z,101505.84
2019-04-28T17:42:00.202Z,101507.56
2019-04-28T17:44:31.237Z,101506.11
2019-04-28T17:48:58.721Z,101489.20
2019-04-28T17:51:29.766Z,101499.68
2019-04-28T17:54:00.843Z,101491.20
2019-04-28T17:56:32.173Z,101487.59
2019-04-28T17:59:03.435Z,101494.65
2019-04-28T18:01:52.654Z,101492.62
2019-04-28T18:04:25.234Z,101502.13
2019-04-28T18:07:03.847Z,101502.80
2019-04-28T18:09:36.286Z,101509.42
2019-04-28T18:12:10.563Z,101512.23
2019-04-28T18:14:43.247Z,101507.59
2019-04-28T18:17:22.547Z,101511.16
2019-04-28T18:19:53.682Z,101507.75
2019-04-28T18:22:24.812Z,101516.82
2019-04-28T18:24:55.753Z,101515.50
2019-04-28T18:27:28.343Z,101520.25
2019-04-28T18:30:00.945Z,101522.84
2019-04-28T18:32:33.558Z,101537.97
2019-04-28T18:35:25.011Z,101552.44
2019-04-28T18:38:06.421Z,101563.97
2019-04-28T18:40:39.202Z,101563.97
2019-04-28T18:43:15.818Z,101559.72
2019-04-28T18:45:46.897Z,101562.37
2019-04-28T18:48:19.554Z,101559.53
2019-04-28T18:50:50.721Z,101557.23
2019-04-28T18:53:21.805Z,101555.14
2019-04-28T18:55:54.540Z,101562.52
2019-04-28T18:58:27.370Z,101559.48
2019-04-28T19:00:59.938Z,101559.48
2019-04-28T19:03:30.980Z,101566.03
2019-04-28T19:06:01.984Z,101561.76
2019-04-28T19:08:49.349Z,101571.95
2019-04-28T19:11:24.618Z,101568.84
2019-04-28T19:14:01.009Z,101576.02
2019-04-28T19:16:51.656Z,101579.29
2019-04-28T19:19:24.254Z,101590.28
2019-04-28T19:21:56.273Z,101584.03
2019-04-28T19:24:31.690Z,101591.39
2019-04-28T19:27:02.693Z,101591.55
2019-04-28T19:29:34.796Z,101595.67
2019-04-28T19:32:05.791Z,101590.84
2019-04-28T19:34:36.836Z,101592.81
2019-04-28T19:37:11.002Z,101593.03
2019-04-28T19:39:45.091Z,101580.03
2019-04-28T19:42:17.786Z,101582.52
2019-04-28T19:44:49.717Z,101579.30
2019-04-28T19:47:20.790Z,101581.78
2019-04-28T19:49:51.830Z,101581.47
2019-04-28T19:52:22.832Z,101584.82
2019-04-28T19:55:04.713Z,101583.98
2019-04-28T19:57:55.474Z,101579.09
2019-04-28T20:00:41.864Z,101583.45
2019-04-28T20:03:12.897Z,101588.98
2019-04-28T20:05:44.199Z,101594.42
2019-04-28T20:08:15.199Z,101597.76
2019-04-28T20:10:47.672Z,101599.41
2019-04-28T20:13:20.190Z,101588.05
2019-04-28T20:15:51.297Z,101597.14
2019-04-28T20:18:22.404Z,101594.87
2019-04-28T20:20:55.132Z,101599.52
2019-04-28T20:23:26.132Z,101600.16
2019-04-28T20:25:57.204Z,101606.69
2019-04-28T20:28:28.342Z,101606.31
2019-04-28T20:30:59.439Z,101613.30
2019-04-28T20:33:30.386Z,101614.25
2019-04-28T20:36:09.130Z,101620.31
2019-04-28T20:38:40.280Z,101623.97
2019-04-28T20:41:18.693Z,101631.03
2019-04-28T20:43:51.860Z,101621.17
2019-04-28T20:46:23.786Z,101627.25
2019-04-28T20:48:54.810Z,101636.64
2019-04-28T20:51:25.848Z,101635.59
2019-04-28T20:53:58.390Z,101635.04
2019-04-28T20:56:29.447Z,101633.94
2019-04-28T20:59:00.490Z,101632.08
2019-04-28T21:01:31.586Z,101634.03
2019-04-28T21:04:02.671Z,101641.02
2019-04-28T21:06:33.742Z,101630.75
2019-04-28T21:09:09.513Z,101635.89
2019-04-28T21:11:39.736Z,101640.73
2019-04-28T21:14:12.251Z,101635.89
2019-04-28T21:16:44.204Z,101638.09
2019-04-28T21:19:18.321Z,101640.41
2019-04-28T21:21:52.572Z,101635.27
2019-04-28T21:24:23.611Z,101632.39
2019-04-28T21:26:55.526Z,101631.21
2019-04-28T21:29:26.611Z,101633.31
2019-04-28T21:31:58.530Z,101633.63
2019-04-28T21:34:29.560Z,101626.75
2019-04-28T21:37:00.652Z,101639.98
2019-04-28T21:39:31.702Z,101637.73
2019-04-28T21:42:04.352Z,101641.70
2019-04-28T21:44:53.232Z,101637.33
2019-04-28T21:47:26.074Z,101647.54
2019-04-28T21:49:57.146Z,101645.27
2019-04-28T21:52:28.200Z,101647.00
2019-04-28T21:55:00.817Z,101646.30
2019-04-28T21:57:31.854Z,101640.80
2019-04-28T22:00:08.204Z,101642.21
2019-04-28T22:02:40.262Z,101638.30
2019-04-28T22:05:12.846Z,101641.72
2019-04-28T22:07:43.873Z,101640.39
2019-04-28T22:10:14.892Z,101640.71
2019-04-28T22:12:49.088Z,101640.71
2019-04-28T22:15:21.798Z,101646.14
2019-04-28T22:17:53.759Z,101642.57
2019-04-28T22:20:24.786Z,101650.56
2019-04-28T22:22:57.334Z,101651.59
2019-04-28T22:25:28.336Z,101660.84
2019-04-28T22:27:59.354Z,101663.17
2019-04-28T22:30:30.605Z,101662.77
2019-04-28T22:33:02.566Z,101657.70
2019-04-28T22:35:33.626Z,101660.02
2019-04-28T22:38:06.230Z,101663.42
2019-04-28T22:40:40.507Z,101658.68
2019-04-28T22:43:13.197Z,101666.20
2019-04-28T22:45:44.210Z,101657.03
2019-04-28T22:48:17.725Z,101655.77
2019-04-28T22:50:50.297Z,101660.67
2019-04-28T22:53:22.910Z,101661.76
2019-04-28T22:55:58.593Z,101659.48
2019-04-28T22:58:32.102Z,101660.56
2019-04-28T23:01:13.576Z,101660.16
2019-04-28T23:03:52.416Z,101657.69
2019-04-28T23:06:23.611Z,101651.45
2019-04-28T23:08:54.577Z,101658.38
2019-04-28T23:11:25.688Z,101657.98
2019-04-28T23:13:56.723Z,101662.89
2019-04-28T23:16:27.855Z,101655.05
2019-04-28T23:19:01.759Z,101658.06
2019-04-28T23:21:46.483Z,101652.91
2019-04-28T23:24:19.061Z,101667.94
2019-04-28T23:26:51.663Z,101665.50
2019-04-28T23:29:22.625Z,101670.38
2019-04-28T23:31:55.214Z,101667.20
2019-04-28T23:34:27.137Z,101664.55
2019-04-28T23:36:58.141Z,101665.34
2019-04-28T23:39:29.168Z,101665.75
2019-04-28T23:42:18.283Z,101670.25
2019-04-28T23:44:50.258Z,101672.02
2019-04-28T23:47:21.254Z,101657.76
2019-04-28T23:49:52.319Z,101658.25
2019-04-28T23:52:25.180Z,101658.62
2019-04-28T23:55:00.827Z,101666.44
2019-04-28T23:57:31.828Z,101659.91
